sensor_id;sensor_type;location;lat;lon;timestamp;P1;durP1;ratioP1;P2;durP2;ratioP2
69594;SDS011;56800;52.142;5.364;2022-12-05T00:00:35;39.92;;;19.92;;
69594;SDS011;56800;52.142;5.364;2022-12-05T00:03:02;36.38;;;19.20;;
69594;SDS011;56800;52.142;5.364;2022-12-05T00:05:32;38.57;;;19.10;;
69594;SDS011;56800;52.142;5.364;2022-12-05T00:07:58;37.17;;;19.33;;
69594;SDS011;56800;52.142;5.364;2022-12-05T00:10:25;39.55;;;18.65;;
69594;SDS011;56800;52.142;5.364;2022-12-05T00:12:52;37.75;;;19.60;;
69594;SDS011;56800;52.142;5.364;2022-12-05T00:15:18;38.35;;;18.90;;
69594;SDS011;56800;52.142;5.364;2022-12-05T00:17:45;41.03;;;19.13;;
69594;SDS011;56800;52.142;5.364;2022-12-05T00:20:12;38.22;;;19.25;;
69594;SDS011;56800;52.142;5.364;2022-12-05T00:22:38;37.40;;;19.52;;
69594;SDS011;56800;52.142;5.364;2022-12-05T00:25:05;41.83;;;18.30;;
69594;SDS011;56800;52.142;5.364;2022-12-05T00:27:32;39.75;;;18.05;;
69594;SDS011;56800;52.142;5.364;2022-12-05T00:29:59;42.37;;;19.23;;
69594;SDS011;56800;52.142;5.364;2022-12-05T00:32:29;36.15;;;19.00;;
69594;SDS011;56800;52.142;5.364;2022-12-05T00:34:56;40.33;;;19.23;;
69594;SDS011;56800;52.142;5.364;2022-12-05T00:37:23;39.65;;;19.25;;
69594;SDS011;56800;52.142;5.364;2022-12-05T00:39:49;39.97;;;19.00;;
69594;SDS011;56800;52.142;5.364;2022-12-05T00:42:16;39.13;;;19.13;;
69594;SDS011;56800;52.142;5.364;2022-12-05T00:44:43;40.03;;;19.20;;
69594;SDS011;56800;52.142;5.364;2022-12-05T00:47:09;43.55;;;20.70;;
69594;SDS011;56800;52.142;5.364;2022-12-05T00:49:36;36.40;;;18.55;;
69594;SDS011;56800;52.142;5.364;2022-12-05T00:52:02;39.40;;;18.85;;
69594;SDS011;56800;52.142;5.364;2022-12-05T00:54:29;41.17;;;19.60;;
69594;SDS011;56800;52.142;5.364;2022-12-05T00:56:56;39.22;;;20.15;;
69594;SDS011;56800;52.142;5.364;2022-12-05T00:59:22;39.33;;;19.48;;
69594;SDS011;56800;52.142;5.364;2022-12-05T01:01:49;41.70;;;20.17;;
69594;SDS011;56800;52.142;5.364;2022-12-05T01:04:18;40.17;;;19.52;;
69594;SDS011;56800;52.142;5.364;2022-12-05T01:06:47;39.40;;;19.93;;
69594;SDS011;56800;52.142;5.364;2022-12-05T01:09:16;41.58;;;20.00;;
69594;SDS011;56800;52.142;5.364;2022-12-05T01:11:44;39.85;;;19.77;;
69594;SDS011;56800;52.142;5.364;2022-12-05T01:14:12;41.42;;;19.92;;
69594;SDS011;56800;52.142;5.364;2022-12-05T01:16:41;42.35;;;19.92;;
69594;SDS011;56800;52.142;5.364;2022-12-05T01:19:13;41.77;;;19.87;;
69594;SDS011;56800;52.142;5.364;2022-12-05T01:21:42;40.80;;;20.17;;
69594;SDS011;56800;52.142;5.364;2022-12-05T01:24:09;43.63;;;20.42;;
69594;SDS011;56800;52.142;5.364;2022-12-05T01:26:36;39.40;;;20.30;;
69594;SDS011;56800;52.142;5.364;2022-12-05T01:29:03;50.47;;;21.42;;
69594;SDS011;56800;52.142;5.364;2022-12-05T01:31:31;41.40;;;19.83;;
69594;SDS011;56800;52.142;5.364;2022-12-05T01:34:00;42.05;;;19.95;;
69594;SDS011;56800;52.142;5.364;2022-12-05T01:36:28;42.88;;;20.60;;
69594;SDS011;56800;52.142;5.364;2022-12-05T01:38:55;40.22;;;20.75;;
69594;SDS011;56800;52.142;5.364;2022-12-05T01:41:26;38.80;;;20.50;;
69594;SDS011;56800;52.142;5.364;2022-12-05T01:44:00;43.67;;;21.00;;
69594;SDS011;56800;52.142;5.364;2022-12-05T01:46:30;41.28;;;20.17;;
69594;SDS011;56800;52.142;5.364;2022-12-05T01:49:12;46.78;;;21.77;;
69594;SDS011;56800;52.142;5.364;2022-12-05T01:51:45;42.58;;;19.42;;
69594;SDS011;56800;52.142;5.364;2022-12-05T01:54:15;42.95;;;20.33;;
69594;SDS011;56800;52.142;5.364;2022-12-05T01:56:44;43.37;;;20.23;;
69594;SDS011;56800;52.142;5.364;2022-12-05T01:59:15;41.63;;;19.30;;
69594;SDS011;56800;52.142;5.364;2022-12-05T02:01:43;42.67;;;20.25;;
69594;SDS011;56800;52.142;5.364;2022-12-05T02:04:10;43.17;;;19.48;;
69594;SDS011;56800;52.142;5.364;2022-12-05T02:06:37;42.70;;;20.30;;
69594;SDS011;56800;52.142;5.364;2022-12-05T02:09:03;40.47;;;19.57;;
69594;SDS011;56800;52.142;5.364;2022-12-05T02:11:31;42.15;;;19.48;;
69594;SDS011;56800;52.142;5.364;2022-12-05T02:14:08;42.17;;;18.95;;
69594;SDS011;56800;52.142;5.364;2022-12-05T02:16:50;42.90;;;20.15;;
69594;SDS011;56800;52.142;5.364;2022-12-05T02:19:37;40.72;;;19.63;;
69594;SDS011;56800;52.142;5.364;2022-12-05T02:30:23;42.05;;;18.83;;
69594;SDS011;56800;52.142;5.364;2022-12-05T02:35:51;37.57;;;18.93;;
69594;SDS011;56800;52.142;5.364;2022-12-05T02:38:25;40.70;;;18.63;;
69594;SDS011;56800;52.142;5.364;2022-12-05T02:43:29;40.42;;;19.80;;
69594;SDS011;56800;52.142;5.364;2022-12-05T02:46:04;37.97;;;19.17;;
69594;SDS011;56800;52.142;5.364;2022-12-05T02:48:37;40.43;;;19.57;;
69594;SDS011;56800;52.142;5.364;2022-12-05T02:51:06;41.42;;;18.73;;
69594;SDS011;56800;52.142;5.364;2022-12-05T02:53:35;40.88;;;19.92;;
69594;SDS011;56800;52.142;5.364;2022-12-05T02:56:03;39.45;;;18.80;;
69594;SDS011;56800;52.142;5.364;2022-12-05T02:58:33;39.88;;;19.08;;
69594;SDS011;56800;52.142;5.364;2022-12-05T03:01:03;38.77;;;19.67;;
69594;SDS011;56800;52.142;5.364;2022-12-05T03:03:30;42.60;;;18.45;;
69594;SDS011;56800;52.142;5.364;2022-12-05T03:06:02;38.13;;;18.45;;
69594;SDS011;56800;52.142;5.364;2022-12-05T03:08:41;39.30;;;18.35;;
69594;SDS011;56800;52.142;5.364;2022-12-05T03:11:18;39.78;;;19.25;;
69594;SDS011;56800;52.142;5.364;2022-12-05T03:13:50;39.73;;;18.90;;
69594;SDS011;56800;52.142;5.364;2022-12-05T03:16:26;41.45;;;17.17;;
69594;SDS011;56800;52.142;5.364;2022-12-05T03:19:00;37.70;;;17.98;;
69594;SDS011;56800;52.142;5.364;2022-12-05T03:21:51;35.92;;;17.40;;
69594;SDS011;56800;52.142;5.364;2022-12-05T03:24:19;34.30;;;16.98;;
69594;SDS011;56800;52.142;5.364;2022-12-05T03:29:28;42.22;;;19.02;;
69594;SDS011;56800;52.142;5.364;2022-12-05T03:35:12;35.22;;;17.30;;
69594;SDS011;56800;52.142;5.364;2022-12-05T03:40:40;39.87;;;18.27;;
69594;SDS011;56800;52.142;5.364;2022-12-05T03:43:17;35.90;;;16.73;;
69594;SDS011;56800;52.142;5.364;2022-12-05T03:45:46;43.85;;;18.33;;
69594;SDS011;56800;52.142;5.364;2022-12-05T03:50:52;34.13;;;17.02;;
69594;SDS011;56800;52.142;5.364;2022-12-05T03:53:25;37.17;;;17.20;;
69594;SDS011;56800;52.142;5.364;2022-12-05T03:55:58;33.28;;;17.48;;
69594;SDS011;56800;52.142;5.364;2022-12-05T03:58:42;35.42;;;17.15;;
69594;SDS011;56800;52.142;5.364;2022-12-05T04:01:13;35.28;;;17.60;;
69594;SDS011;56800;52.142;5.364;2022-12-05T04:03:51;42.38;;;18.90;;
69594;SDS011;56800;52.142;5.364;2022-12-05T04:06:25;34.47;;;17.60;;
69594;SDS011;56800;52.142;5.364;2022-12-05T04:08:59;34.63;;;17.25;;
69594;SDS011;56800;52.142;5.364;2022-12-05T04:11:44;36.13;;;17.60;;
69594;SDS011;56800;52.142;5.364;2022-12-05T04:14:17;33.97;;;16.60;;
69594;SDS011;56800;52.142;5.364;2022-12-05T04:16:50;33.30;;;17.45;;
69594;SDS011;56800;52.142;5.364;2022-12-05T04:22:26;31.77;;;16.45;;
69594;SDS011;56800;52.142;5.364;2022-12-05T04:24:53;32.78;;;17.05;;
69594;SDS011;56800;52.142;5.364;2022-12-05T04:30:17;36.63;;;16.50;;
69594;SDS011;56800;52.142;5.364;2022-12-05T04:32:56;35.77;;;16.70;;
69594;SDS011;56800;52.142;5.364;2022-12-05T04:35:33;32.35;;;16.83;;
69594;SDS011;56800;52.142;5.364;2022-12-05T04:38:13;32.95;;;16.42;;
69594;SDS011;56800;52.142;5.364;2022-12-05T04:40:51;31.67;;;16.67;;
69594;SDS011;56800;52.142;5.364;2022-12-05T04:43:25;30.88;;;16.63;;
69594;SDS011;56800;52.142;5.364;2022-12-05T04:45:56;33.13;;;16.07;;
69594;SDS011;56800;52.142;5.364;2022-12-05T04:48:25;35.83;;;16.70;;
69594;SDS011;56800;52.142;5.364;2022-12-05T04:50:53;35.10;;;17.40;;
69594;SDS011;56800;52.142;5.364;2022-12-05T04:53:25;35.83;;;18.02;;
69594;SDS011;56800;52.142;5.364;2022-12-05T04:55:54;35.92;;;17.52;;
69594;SDS011;56800;52.142;5.364;2022-12-05T04:58:24;36.30;;;16.03;;
69594;SDS011;56800;52.142;5.364;2022-12-05T05:00:58;32.35;;;17.17;;
69594;SDS011;56800;52.142;5.364;2022-12-05T05:03:47;32.75;;;17.15;;
69594;SDS011;56800;52.142;5.364;2022-12-05T05:06:18;35.97;;;17.92;;
69594;SDS011;56800;52.142;5.364;2022-12-05T05:08:45;34.17;;;17.42;;
69594;SDS011;56800;52.142;5.364;2022-12-05T05:11:27;33.07;;;17.90;;
69594;SDS011;56800;52.142;5.364;2022-12-05T05:13:55;37.28;;;17.65;;
69594;SDS011;56800;52.142;5.364;2022-12-05T05:16:42;36.53;;;18.58;;
69594;SDS011;56800;52.142;5.364;2022-12-05T05:19:10;36.60;;;18.50;;
69594;SDS011;56800;52.142;5.364;2022-12-05T05:21:38;37.67;;;18.13;;
69594;SDS011;56800;52.142;5.364;2022-12-05T05:24:06;38.80;;;18.50;;
69594;SDS011;56800;52.142;5.364;2022-12-05T05:26:35;37.35;;;19.10;;
69594;SDS011;56800;52.142;5.364;2022-12-05T05:29:06;40.65;;;18.58;;
69594;SDS011;56800;52.142;5.364;2022-12-05T05:31:35;34.38;;;17.65;;
69594;SDS011;56800;52.142;5.364;2022-12-05T05:34:03;38.63;;;18.77;;
69594;SDS011;56800;52.142;5.364;2022-12-05T05:36:35;39.87;;;19.33;;
69594;SDS011;56800;52.142;5.364;2022-12-05T05:39:03;37.13;;;18.65;;
69594;SDS011;56800;52.142;5.364;2022-12-05T05:41:33;42.50;;;19.25;;
69594;SDS011;56800;52.142;5.364;2022-12-05T05:44:01;39.20;;;17.77;;
69594;SDS011;56800;52.142;5.364;2022-12-05T05:46:31;38.40;;;18.40;;
69594;SDS011;56800;52.142;5.364;2022-12-05T05:48:59;40.27;;;19.13;;
69594;SDS011;56800;52.142;5.364;2022-12-05T05:51:25;44.13;;;18.60;;
69594;SDS011;56800;52.142;5.364;2022-12-05T05:53:54;37.85;;;18.23;;
69594;SDS011;56800;52.142;5.364;2022-12-05T05:56:22;40.17;;;18.13;;
69594;SDS011;56800;52.142;5.364;2022-12-05T05:58:56;36.30;;;17.42;;
69594;SDS011;56800;52.142;5.364;2022-12-05T06:01:24;36.57;;;18.67;;
69594;SDS011;56800;52.142;5.364;2022-12-05T06:03:51;38.05;;;17.88;;
69594;SDS011;56800;52.142;5.364;2022-12-05T06:06:19;36.17;;;17.75;;
69594;SDS011;56800;52.142;5.364;2022-12-05T06:08:46;40.55;;;18.98;;
69594;SDS011;56800;52.142;5.364;2022-12-05T06:11:14;38.47;;;17.80;;
69594;SDS011;56800;52.142;5.364;2022-12-05T06:13:51;38.53;;;17.93;;
69594;SDS011;56800;52.142;5.364;2022-12-05T06:16:21;37.00;;;17.92;;
69594;SDS011;56800;52.142;5.364;2022-12-05T06:18:48;46.28;;;18.13;;
69594;SDS011;56800;52.142;5.364;2022-12-05T06:21:16;39.65;;;18.77;;
69594;SDS011;56800;52.142;5.364;2022-12-05T06:23:43;39.95;;;17.88;;
69594;SDS011;56800;52.142;5.364;2022-12-05T06:26:10;39.07;;;18.37;;
69594;SDS011;56800;52.142;5.364;2022-12-05T06:28:39;39.70;;;18.67;;
69594;SDS011;56800;52.142;5.364;2022-12-05T06:31:10;40.67;;;17.60;;
69594;SDS011;56800;52.142;5.364;2022-12-05T06:33:42;40.35;;;17.73;;
69594;SDS011;56800;52.142;5.364;2022-12-05T06:36:10;43.35;;;18.42;;
69594;SDS011;56800;52.142;5.364;2022-12-05T06:38:39;43.97;;;18.43;;
69594;SDS011;56800;52.142;5.364;2022-12-05T06:41:08;41.95;;;17.77;;
69594;SDS011;56800;52.142;5.364;2022-12-05T06:43:38;45.28;;;17.92;;
69594;SDS011;56800;52.142;5.364;2022-12-05T06:46:06;45.25;;;18.45;;
69594;SDS011;56800;52.142;5.364;2022-12-05T06:48:35;44.72;;;18.75;;
69594;SDS011;56800;52.142;5.364;2022-12-05T06:51:02;37.60;;;17.43;;
69594;SDS011;56800;52.142;5.364;2022-12-05T06:53:29;42.90;;;18.70;;
69594;SDS011;56800;52.142;5.364;2022-12-05T06:55:56;41.55;;;17.02;;
69594;SDS011;56800;52.142;5.364;2022-12-05T06:58:27;48.00;;;18.98;;
69594;SDS011;56800;52.142;5.364;2022-12-05T07:00:55;43.67;;;18.58;;
69594;SDS011;56800;52.142;5.364;2022-12-05T07:03:40;38.53;;;18.13;;
69594;SDS011;56800;52.142;5.364;2022-12-05T07:06:08;38.28;;;18.02;;
69594;SDS011;56800;52.142;5.364;2022-12-05T07:08:35;41.63;;;17.95;;
69594;SDS011;56800;52.142;5.364;2022-12-05T07:11:02;41.10;;;17.88;;
69594;SDS011;56800;52.142;5.364;2022-12-05T07:13:28;40.17;;;18.05;;
69594;SDS011;56800;52.142;5.364;2022-12-05T07:15:55;37.30;;;17.10;;
69594;SDS011;56800;52.142;5.364;2022-12-05T07:18:24;39.10;;;16.85;;
69594;SDS011;56800;52.142;5.364;2022-12-05T07:20:55;38.63;;;16.90;;
69594;SDS011;56800;52.142;5.364;2022-12-05T07:23:40;36.53;;;16.67;;
69594;SDS011;56800;52.142;5.364;2022-12-05T07:26:08;38.47;;;17.17;;
69594;SDS011;56800;52.142;5.364;2022-12-05T07:28:40;38.33;;;17.17;;
69594;SDS011;56800;52.142;5.364;2022-12-05T07:31:08;31.98;;;15.55;;
69594;SDS011;56800;52.142;5.364;2022-12-05T07:33:37;33.88;;;16.98;;
69594;SDS011;56800;52.142;5.364;2022-12-05T07:36:08;34.10;;;16.88;;
69594;SDS011;56800;52.142;5.364;2022-12-05T07:38:36;40.13;;;16.40;;
69594;SDS011;56800;52.142;5.364;2022-12-05T07:41:07;35.60;;;15.90;;
69594;SDS011;56800;52.142;5.364;2022-12-05T07:43:39;34.60;;;15.80;;
69594;SDS011;56800;52.142;5.364;2022-12-05T07:46:06;30.63;;;15.00;;
69594;SDS011;56800;52.142;5.364;2022-12-05T07:48:34;34.42;;;15.20;;
69594;SDS011;56800;52.142;5.364;2022-12-05T07:51:01;32.50;;;15.20;;
69594;SDS011;56800;52.142;5.364;2022-12-05T07:53:30;29.67;;;15.10;;
69594;SDS011;56800;52.142;5.364;2022-12-05T07:55:58;31.33;;;15.25;;
69594;SDS011;56800;52.142;5.364;2022-12-05T07:58:27;34.08;;;14.98;;
69594;SDS011;56800;52.142;5.364;2022-12-05T08:00:55;29.27;;;13.85;;
69594;SDS011;56800;52.142;5.364;2022-12-05T08:03:22;28.95;;;14.77;;
69594;SDS011;56800;52.142;5.364;2022-12-05T08:05:48;26.93;;;14.37;;
69594;SDS011;56800;52.142;5.364;2022-12-05T08:08:15;25.02;;;15.05;;
69594;SDS011;56800;52.142;5.364;2022-12-05T08:10:42;29.60;;;14.77;;
69594;SDS011;56800;52.142;5.364;2022-12-05T08:13:09;27.27;;;14.70;;
69594;SDS011;56800;52.142;5.364;2022-12-05T08:15:35;25.45;;;13.63;;
69594;SDS011;56800;52.142;5.364;2022-12-05T08:18:02;26.30;;;13.40;;
69594;SDS011;56800;52.142;5.364;2022-12-05T08:20:29;25.60;;;13.68;;
69594;SDS011;56800;52.142;5.364;2022-12-05T08:22:55;25.38;;;13.85;;
69594;SDS011;56800;52.142;5.364;2022-12-05T08:25:22;26.23;;;13.93;;
69594;SDS011;56800;52.142;5.364;2022-12-05T08:27:49;29.17;;;14.52;;
69594;SDS011;56800;52.142;5.364;2022-12-05T08:30:15;21.83;;;12.80;;
69594;SDS011;56800;52.142;5.364;2022-12-05T08:32:42;25.73;;;13.70;;
69594;SDS011;56800;52.142;5.364;2022-12-05T08:35:09;24.92;;;13.30;;
69594;SDS011;56800;52.142;5.364;2022-12-05T08:37:36;23.63;;;12.38;;
69594;SDS011;56800;52.142;5.364;2022-12-05T08:40:03;25.10;;;13.65;;
69594;SDS011;56800;52.142;5.364;2022-12-05T08:42:30;21.80;;;12.17;;
69594;SDS011;56800;52.142;5.364;2022-12-05T08:44:56;21.85;;;11.85;;
69594;SDS011;56800;52.142;5.364;2022-12-05T08:47:23;22.65;;;12.80;;
69594;SDS011;56800;52.142;5.364;2022-12-05T08:49:50;23.33;;;12.38;;
69594;SDS011;56800;52.142;5.364;2022-12-05T08:52:17;22.98;;;11.85;;
69594;SDS011;56800;52.142;5.364;2022-12-05T08:54:43;21.97;;;13.10;;
69594;SDS011;56800;52.142;5.364;2022-12-05T08:57:10;24.20;;;12.88;;
69594;SDS011;56800;52.142;5.364;2022-12-05T08:59:36;22.08;;;12.15;;
69594;SDS011;56800;52.142;5.364;2022-12-05T09:02:03;21.42;;;11.68;;
69594;SDS011;56800;52.142;5.364;2022-12-05T09:04:30;21.42;;;11.32;;
69594;SDS011;56800;52.142;5.364;2022-12-05T09:06:56;18.07;;;11.73;;
69594;SDS011;56800;52.142;5.364;2022-12-05T09:09:26;17.20;;;11.02;;
69594;SDS011;56800;52.142;5.364;2022-12-05T09:11:52;15.60;;;10.10;;
69594;SDS011;56800;52.142;5.364;2022-12-05T09:14:19;18.35;;;9.38;;
69594;SDS011;56800;52.142;5.364;2022-12-05T09:16:46;17.08;;;9.48;;
69594;SDS011;56800;52.142;5.364;2022-12-05T09:19:14;17.00;;;8.97;;
69594;SDS011;56800;52.142;5.364;2022-12-05T09:21:46;14.85;;;9.20;;
69594;SDS011;56800;52.142;5.364;2022-12-05T09:24:13;13.77;;;8.65;;
69594;SDS011;56800;52.142;5.364;2022-12-05T09:26:40;13.65;;;9.20;;
69594;SDS011;56800;52.142;5.364;2022-12-05T09:29:07;15.15;;;8.60;;
69594;SDS011;56800;52.142;5.364;2022-12-05T09:31:42;13.33;;;8.43;;
69594;SDS011;56800;52.142;5.364;2022-12-05T09:34:09;13.48;;;8.75;;
69594;SDS011;56800;52.142;5.364;2022-12-05T09:36:35;12.77;;;7.97;;
69594;SDS011;56800;52.142;5.364;2022-12-05T09:39:03;12.57;;;8.13;;
69594;SDS011;56800;52.142;5.364;2022-12-05T09:41:47;15.02;;;8.07;;
69594;SDS011;56800;52.142;5.364;2022-12-05T09:44:39;11.90;;;8.27;;
69594;SDS011;56800;52.142;5.364;2022-12-05T09:50:02;12.55;;;7.53;;
69594;SDS011;56800;52.142;5.364;2022-12-05T09:52:37;11.43;;;7.90;;
69594;SDS011;56800;52.142;5.364;2022-12-05T09:55:13;14.15;;;7.95;;
69594;SDS011;56800;52.142;5.364;2022-12-05T09:57:44;11.97;;;8.03;;
69594;SDS011;56800;52.142;5.364;2022-12-05T10:00:17;12.27;;;7.38;;
69594;SDS011;56800;52.142;5.364;2022-12-05T10:08:23;13.35;;;7.47;;
69594;SDS011;56800;52.142;5.364;2022-12-05T10:11:02;10.50;;;7.63;;
69594;SDS011;56800;52.142;5.364;2022-12-05T10:13:47;14.07;;;7.68;;
69594;SDS011;56800;52.142;5.364;2022-12-05T10:16:33;10.57;;;7.30;;
69594;SDS011;56800;52.142;5.364;2022-12-05T10:19:31;11.77;;;7.53;;
69594;SDS011;56800;52.142;5.364;2022-12-05T10:22:01;11.23;;;6.60;;
69594;SDS011;56800;52.142;5.364;2022-12-05T10:24:46;11.07;;;7.30;;
69594;SDS011;56800;52.142;5.364;2022-12-05T10:27:25;11.02;;;6.70;;
69594;SDS011;56800;52.142;5.364;2022-12-05T10:33:09;13.07;;;7.22;;
69594;SDS011;56800;52.142;5.364;2022-12-05T10:35:35;8.93;;;6.38;;
69594;SDS011;56800;52.142;5.364;2022-12-05T10:38:15;8.43;;;6.03;;
69594;SDS011;56800;52.142;5.364;2022-12-05T10:40:51;7.43;;;5.78;;
69594;SDS011;56800;52.142;5.364;2022-12-05T10:43:27;7.13;;;5.05;;
69594;SDS011;56800;52.142;5.364;2022-12-05T10:45:55;8.50;;;5.78;;
69594;SDS011;56800;52.142;5.364;2022-12-05T10:48:23;8.70;;;5.30;;
69594;SDS011;56800;52.142;5.364;2022-12-05T10:50:55;7.60;;;4.93;;
69594;SDS011;56800;52.142;5.364;2022-12-05T10:53:24;8.35;;;5.22;;
69594;SDS011;56800;52.142;5.364;2022-12-05T10:56:03;6.43;;;4.35;;
69594;SDS011;56800;52.142;5.364;2022-12-05T10:59:02;8.02;;;3.80;;
69594;SDS011;56800;52.142;5.364;2022-12-05T11:01:34;6.32;;;4.45;;
69594;SDS011;56800;52.142;5.364;2022-12-05T11:04:05;7.97;;;4.00;;
69594;SDS011;56800;52.142;5.364;2022-12-05T11:06:47;5.93;;;3.83;;
69594;SDS011;56800;52.142;5.364;2022-12-05T11:09:25;9.30;;;4.40;;
69594;SDS011;56800;52.142;5.364;2022-12-05T11:12:02;5.82;;;4.10;;
69594;SDS011;56800;52.142;5.364;2022-12-05T11:14:34;7.00;;;4.20;;
69594;SDS011;56800;52.142;5.364;2022-12-05T11:17:02;6.43;;;4.50;;
69594;SDS011;56800;52.142;5.364;2022-12-05T11:19:30;6.30;;;4.25;;
69594;SDS011;56800;52.142;5.364;2022-12-05T11:21:58;8.75;;;4.75;;
69594;SDS011;56800;52.142;5.364;2022-12-05T11:24:27;6.93;;;4.25;;
69594;SDS011;56800;52.142;5.364;2022-12-05T11:26:56;7.75;;;4.85;;
69594;SDS011;56800;52.142;5.364;2022-12-05T11:31:59;7.55;;;4.90;;
69594;SDS011;56800;52.142;5.364;2022-12-05T11:34:27;8.35;;;5.05;;
69594;SDS011;56800;52.142;5.364;2022-12-05T11:37:23;9.23;;;4.60;;
69594;SDS011;56800;52.142;5.364;2022-12-05T11:39:53;9.65;;;4.93;;
69594;SDS011;56800;52.142;5.364;2022-12-05T11:42:29;9.13;;;4.87;;
69594;SDS011;56800;52.142;5.364;2022-12-05T11:56:36;8.40;;;5.00;;
69594;SDS011;56800;52.142;5.364;2022-12-05T12:02:13;8.30;;;5.03;;
69594;SDS011;56800;52.142;5.364;2022-12-05T12:04:51;12.07;;;5.28;;
69594;SDS011;56800;52.142;5.364;2022-12-05T12:07:51;7.45;;;4.40;;
69594;SDS011;56800;52.142;5.364;2022-12-05T12:15:36;8.77;;;4.63;;
69594;SDS011;56800;52.142;5.364;2022-12-05T12:18:22;11.38;;;4.75;;
69594;SDS011;56800;52.142;5.364;2022-12-05T12:21:12;7.03;;;4.22;;
69594;SDS011;56800;52.142;5.364;2022-12-05T12:40:34;8.10;;;4.57;;
69594;SDS011;56800;52.142;5.364;2022-12-05T12:49:12;7.60;;;4.50;;
69594;SDS011;56800;52.142;5.364;2022-12-05T12:52:01;9.70;;;4.60;;
69594;SDS011;56800;52.142;5.364;2022-12-05T13:02:49;7.72;;;4.38;;
69594;SDS011;56800;52.142;5.364;2022-12-05T13:07:58;7.47;;;4.35;;
69594;SDS011;56800;52.142;5.364;2022-12-05T13:10:34;8.35;;;4.10;;
69594;SDS011;56800;52.142;5.364;2022-12-05T13:13:05;9.80;;;4.25;;
69594;SDS011;56800;52.142;5.364;2022-12-05T13:15:37;9.00;;;4.70;;
69594;SDS011;56800;52.142;5.364;2022-12-05T13:18:11;8.67;;;4.50;;
69594;SDS011;56800;52.142;5.364;2022-12-05T13:20:41;6.35;;;4.15;;
69594;SDS011;56800;52.142;5.364;2022-12-05T13:23:11;7.68;;;4.20;;
69594;SDS011;56800;52.142;5.364;2022-12-05T13:25:41;6.80;;;4.18;;
69594;SDS011;56800;52.142;5.364;2022-12-05T13:28:27;7.22;;;4.20;;
69594;SDS011;56800;52.142;5.364;2022-12-05T13:30:57;9.03;;;4.03;;
69594;SDS011;56800;52.142;5.364;2022-12-05T13:33:32;7.88;;;4.22;;
69594;SDS011;56800;52.142;5.364;2022-12-05T13:36:09;9.77;;;4.43;;
69594;SDS011;56800;52.142;5.364;2022-12-05T13:39:04;7.90;;;4.28;;
69594;SDS011;56800;52.142;5.364;2022-12-05T13:41:59;7.75;;;4.00;;
69594;SDS011;56800;52.142;5.364;2022-12-05T13:44:45;8.23;;;4.57;;
69594;SDS011;56800;52.142;5.364;2022-12-05T13:47:20;8.73;;;3.97;;
69594;SDS011;56800;52.142;5.364;2022-12-05T13:49:49;10.98;;;3.92;;
69594;SDS011;56800;52.142;5.364;2022-12-05T13:52:29;7.38;;;3.90;;
69594;SDS011;56800;52.142;5.364;2022-12-05T13:58:02;8.17;;;4.13;;
69594;SDS011;56800;52.142;5.364;2022-12-05T14:00:45;9.48;;;4.13;;
69594;SDS011;56800;52.142;5.364;2022-12-05T14:05:57;7.25;;;4.00;;
69594;SDS011;56800;52.142;5.364;2022-12-05T14:11:07;6.57;;;3.90;;
69594;SDS011;56800;52.142;5.364;2022-12-05T14:22:15;6.68;;;3.80;;
69594;SDS011;56800;52.142;5.364;2022-12-05T14:24:53;9.33;;;3.70;;
69594;SDS011;56800;52.142;5.364;2022-12-05T14:33:16;6.85;;;3.47;;
69594;SDS011;56800;52.142;5.364;2022-12-05T14:35:47;7.32;;;3.70;;
69594;SDS011;56800;52.142;5.364;2022-12-05T14:38:25;9.33;;;4.07;;
69594;SDS011;56800;52.142;5.364;2022-12-05T14:40:54;7.70;;;4.15;;
69594;SDS011;56800;52.142;5.364;2022-12-05T14:43:35;7.85;;;4.70;;
69594;SDS011;56800;52.142;5.364;2022-12-05T14:46:07;7.15;;;3.78;;
69594;SDS011;56800;52.142;5.364;2022-12-05T14:48:49;6.97;;;3.85;;
69594;SDS011;56800;52.142;5.364;2022-12-05T14:53:56;9.45;;;4.18;;
69594;SDS011;56800;52.142;5.364;2022-12-05T14:56:29;6.22;;;3.92;;
69594;SDS011;56800;52.142;5.364;2022-12-05T14:59:04;8.05;;;4.60;;
69594;SDS011;56800;52.142;5.364;2022-12-05T15:06:53;6.78;;;3.67;;
69594;SDS011;56800;52.142;5.364;2022-12-05T15:09:28;6.38;;;3.42;;
69594;SDS011;56800;52.142;5.364;2022-12-05T15:12:19;6.63;;;3.65;;
69594;SDS011;56800;52.142;5.364;2022-12-05T15:14:53;7.00;;;3.63;;
69594;SDS011;56800;52.142;5.364;2022-12-05T15:17:44;8.07;;;3.33;;
69594;SDS011;56800;52.142;5.364;2022-12-05T15:20:14;6.65;;;3.70;;
69594;SDS011;56800;52.142;5.364;2022-12-05T15:22:51;5.90;;;3.67;;
69594;SDS011;56800;52.142;5.364;2022-12-05T15:27:53;6.68;;;4.00;;
69594;SDS011;56800;52.142;5.364;2022-12-05T15:30:31;6.10;;;3.63;;
69594;SDS011;56800;52.142;5.364;2022-12-05T15:33:01;7.10;;;3.70;;
69594;SDS011;56800;52.142;5.364;2022-12-05T15:35:29;6.80;;;3.50;;
69594;SDS011;56800;52.142;5.364;2022-12-05T15:37:59;8.45;;;3.72;;
69594;SDS011;56800;52.142;5.364;2022-12-05T15:40:34;5.88;;;3.45;;
69594;SDS011;56800;52.142;5.364;2022-12-05T15:48:54;9.07;;;3.78;;
69594;SDS011;56800;52.142;5.364;2022-12-05T15:51:35;7.22;;;4.13;;
69594;SDS011;56800;52.142;5.364;2022-12-05T15:54:05;7.25;;;4.00;;
69594;SDS011;56800;52.142;5.364;2022-12-05T15:56:46;8.13;;;4.13;;
69594;SDS011;56800;52.142;5.364;2022-12-05T15:59:19;6.65;;;3.97;;
69594;SDS011;56800;52.142;5.364;2022-12-05T16:01:51;6.95;;;3.80;;
69594;SDS011;56800;52.142;5.364;2022-12-05T16:04:42;6.35;;;3.90;;
69594;SDS011;56800;52.142;5.364;2022-12-05T16:07:12;7.32;;;3.78;;
69594;SDS011;56800;52.142;5.364;2022-12-05T16:09:40;7.83;;;3.73;;
69594;SDS011;56800;52.142;5.364;2022-12-05T16:12:23;6.40;;;4.10;;
69594;SDS011;56800;52.142;5.364;2022-12-05T16:14:57;7.93;;;4.10;;
69594;SDS011;56800;52.142;5.364;2022-12-05T16:17:28;7.35;;;3.80;;
69594;SDS011;56800;52.142;5.364;2022-12-05T16:20:09;5.90;;;3.85;;
69594;SDS011;56800;52.142;5.364;2022-12-05T16:23:03;5.63;;;3.77;;
69594;SDS011;56800;52.142;5.364;2022-12-05T16:25:49;8.07;;;3.90;;
69594;SDS011;56800;52.142;5.364;2022-12-05T16:28:18;7.82;;;3.85;;
69594;SDS011;56800;52.142;5.364;2022-12-05T16:30:53;10.05;;;4.03;;
69594;SDS011;56800;52.142;5.364;2022-12-05T16:33:22;9.57;;;4.18;;
69594;SDS011;56800;52.142;5.364;2022-12-05T16:35:49;6.00;;;3.70;;
69594;SDS011;56800;52.142;5.364;2022-12-05T16:43:27;8.30;;;4.28;;
69594;SDS011;56800;52.142;5.364;2022-12-05T16:45:58;7.57;;;4.15;;
69594;SDS011;56800;52.142;5.364;2022-12-05T16:48:41;6.27;;;3.70;;
69594;SDS011;56800;52.142;5.364;2022-12-05T16:53:43;11.30;;;5.07;;
69594;SDS011;56800;52.142;5.364;2022-12-05T16:56:14;9.05;;;4.50;;
69594;SDS011;56800;52.142;5.364;2022-12-05T16:58:43;8.60;;;5.15;;
69594;SDS011;56800;52.142;5.364;2022-12-05T17:01:13;8.43;;;4.70;;
69594;SDS011;56800;52.142;5.364;2022-12-05T17:03:49;12.68;;;5.78;;
69594;SDS011;56800;52.142;5.364;2022-12-05T17:06:16;10.88;;;5.20;;
69594;SDS011;56800;52.142;5.364;2022-12-05T17:08:49;9.60;;;4.97;;
69594;SDS011;56800;52.142;5.364;2022-12-05T17:11:20;8.88;;;5.18;;
69594;SDS011;56800;52.142;5.364;2022-12-05T17:13:49;8.47;;;5.10;;
69594;SDS011;56800;52.142;5.364;2022-12-05T17:16:17;7.32;;;4.53;;
69594;SDS011;56800;52.142;5.364;2022-12-05T17:18:45;10.18;;;4.50;;
69594;SDS011;56800;52.142;5.364;2022-12-05T17:21:16;10.63;;;4.80;;
69594;SDS011;56800;52.142;5.364;2022-12-05T17:23:48;8.80;;;4.85;;